sensor_id;sensor_type;location;lat;lon;timestamp;pressure;altitude;pressure_sealevel;temperature;humidity
6615;BME280;3343;42.896;23.912;2022-09-09T00:00:47;96585.91;;;26.63;56.03
6615;BME280;3343;42.896;23.912;2022-09-09T00:03:17;96584.97;;;26.96;54.68
6615;BME280;3343;42.896;23.912;2022-09-09T00:05:52;96575.13;;;26.39;56.81
6615;BME280;3343;42.896;23.912;2022-09-09T00:08:24;96592.81;;;26.74;55.95
6615;BME280;3343;42.896;23.912;2022-09-09T00:11:01;96583.22;;;26.63;56.17
6615;BME280;3343;42.896;23.912;2022-09-09T00:13:37;96586.31;;;25.98;58.31
6615;BME280;3343;42.896;23.912;2022-09-09T00:16:11;96588.53;;;25.18;63.19
6615;BME280;3343;42.896;23.912;2022-09-09T00:18:52;96577.09;;;25.36;61.34
6615;BME280;3343;42.896;23.912;2022-09-09T00:21:24;96579.44;;;25.04;64.08
6615;BME280;3343;42.896;23.912;2022-09-09T00:23:55;96580.56;;;24.98;63.60
6615;BME280;3343;42.896;23.912;2022-09-09T00:26:30;96576.59;;;25.68;61.15
6615;BME280;3343;42.896;23.912;2022-09-09T00:29:05;96587.75;;;25.52;61.45
6615;BME280;3343;42.896;23.912;2022-09-09T00:31:36;96583.47;;;26.14;57.67
6615;BME280;3343;42.896;23.912;2022-09-09T00:34:09;96580.03;;;26.37;56.69
6615;BME280;3343;42.896;23.912;2022-09-09T00:36:39;96575.38;;;26.43;56.71
6615;BME280;3343;42.896;23.912;2022-09-09T00:39:26;96561.34;;;27.07;53.95
6615;BME280;3343;42.896;23.912;2022-09-09T00:42:06;96560.88;;;26.57;56.04
6615;BME280;3343;42.896;23.912;2022-09-09T00:44:38;96561.56;;;26.68;55.64
6615;BME280;3343;42.896;23.912;2022-09-09T00:47:15;96550.56;;;26.83;54.69
6615;BME280;3343;42.896;23.912;2022-09-09T00:49:53;96550.91;;;26.77;54.78
6615;BME280;3343;42.896;23.912;2022-09-09T00:52:30;96541.56;;;25.97;58.89
6615;BME280;3343;42.896;23.912;2022-09-09T00:55:05;96536.44;;;26.49;55.73
6615;BME280;3343;42.896;23.912;2022-09-09T00:57:35;96538.16;;;26.40;56.50
6615;BME280;3343;42.896;23.912;2022-09-09T01:00:20;96533.09;;;27.18;53.00
6615;BME280;3343;42.896;23.912;2022-09-09T01:02:53;96534.00;;;26.23;56.93
6615;BME280;3343;42.896;23.912;2022-09-09T01:05:27;96532.53;;;26.12;56.67
6615;BME280;3343;42.896;23.912;2022-09-09T01:07:58;96521.13;;;25.91;58.04
6615;BME280;3343;42.896;23.912;2022-09-09T01:10:35;96524.41;;;25.54;58.83
6615;BME280;3343;42.896;23.912;2022-09-09T01:13:11;96537.81;;;26.22;56.79
6615;BME280;3343;42.896;23.912;2022-09-09T01:15:42;96544.34;;;26.64;55.14
6615;BME280;3343;42.896;23.912;2022-09-09T01:18:14;96533.63;;;26.78;53.96
6615;BME280;3343;42.896;23.912;2022-09-09T01:20:49;96545.00;;;27.17;52.64
6615;BME280;3343;42.896;23.912;2022-09-09T01:23:39;96545.34;;;26.92;53.24
6615;BME280;3343;42.896;23.912;2022-09-09T01:26:15;96544.97;;;27.36;51.86
6615;BME280;3343;42.896;23.912;2022-09-09T01:28:46;96545.88;;;27.32;51.55
6615;BME280;3343;42.896;23.912;2022-09-09T01:31:17;96543.00;;;27.42;51.17
6615;BME280;3343;42.896;23.912;2022-09-09T01:33:45;96539.47;;;26.42;54.44
6615;BME280;3343;42.896;23.912;2022-09-09T01:36:15;96547.59;;;26.42;54.95
6615;BME280;3343;42.896;23.912;2022-09-09T01:38:45;96534.22;;;25.74;56.88
6615;BME280;3343;42.896;23.912;2022-09-09T01:41:13;96535.06;;;25.98;56.20
6615;BME280;3343;42.896;23.912;2022-09-09T01:43:40;96533.22;;;25.31;58.57
6615;BME280;3343;42.896;23.912;2022-09-09T01:46:07;96534.44;;;25.49;57.63
6615;BME280;3343;42.896;23.912;2022-09-09T01:48:34;96535.03;;;25.75;56.61
6615;BME280;3343;42.896;23.912;2022-09-09T01:51:01;96532.09;;;25.37;58.21
6615;BME280;3343;42.896;23.912;2022-09-09T01:53:28;96539.28;;;25.47;58.02
6615;BME280;3343;42.896;23.912;2022-09-09T01:56:05;96538.78;;;26.08;56.31
6615;BME280;3343;42.896;23.912;2022-09-09T01:58:45;96546.00;;;26.12;55.61
6615;BME280;3343;42.896;23.912;2022-09-09T02:01:21;96545.00;;;24.26;63.62
6615;BME280;3343;42.896;23.912;2022-09-09T02:03:53;96553.38;;;24.35;64.32
6615;BME280;3343;42.896;23.912;2022-09-09T02:06:27;96546.53;;;25.17;60.81
6615;BME280;3343;42.896;23.912;2022-09-09T02:08:56;96551.88;;;25.56;58.67
6615;BME280;3343;42.896;23.912;2022-09-09T02:11:27;96550.50;;;25.93;57.23
6615;BME280;3343;42.896;23.912;2022-09-09T02:14:00;96549.72;;;25.58;58.67
6615;BME280;3343;42.896;23.912;2022-09-09T02:16:32;96545.28;;;25.73;57.46
6615;BME280;3343;42.896;23.912;2022-09-09T02:19:06;96548.50;;;25.75;57.56
6615;BME280;3343;42.896;23.912;2022-09-09T02:21:35;96546.69;;;24.82;60.82
6615;BME280;3343;42.896;23.912;2022-09-09T02:24:05;96544.78;;;24.87;61.23
6615;BME280;3343;42.896;23.912;2022-09-09T02:26:36;96536.88;;;25.06;60.74
6615;BME280;3343;42.896;23.912;2022-09-09T02:29:09;96539.94;;;25.33;59.39
6615;BME280;3343;42.896;23.912;2022-09-09T02:31:38;96544.72;;;25.42;58.76
6615;BME280;3343;42.896;23.912;2022-09-09T02:34:09;96552.78;;;25.47;58.28
6615;BME280;3343;42.896;23.912;2022-09-09T02:36:38;96526.63;;;25.47;57.88
6615;BME280;3343;42.896;23.912;2022-09-09T02:39:08;96549.13;;;25.61;57.54
6615;BME280;3343;42.896;23.912;2022-09-09T02:41:39;96554.91;;;25.11;59.80
6615;BME280;3343;42.896;23.912;2022-09-09T02:44:10;96554.84;;;24.66;62.04
6615;BME280;3343;42.896;23.912;2022-09-09T02:46:50;96559.97;;;25.22;59.76
6615;BME280;3343;42.896;23.912;2022-09-09T02:49:29;96550.03;;;25.13;59.56
6615;BME280;3343;42.896;23.912;2022-09-09T02:52:04;96557.94;;;24.94;60.31
6615;BME280;3343;42.896;23.912;2022-09-09T02:54:34;96552.94;;;25.26;59.16
6615;BME280;3343;42.896;23.912;2022-09-09T02:57:04;96553.66;;;24.28;63.31
6615;BME280;3343;42.896;23.912;2022-09-09T02:59:34;96551.47;;;25.00;60.74
6615;BME280;3343;42.896;23.912;2022-09-09T03:02:01;96548.59;;;25.30;58.92
6615;BME280;3343;42.896;23.912;2022-09-09T03:04:28;96548.31;;;25.66;56.87
6615;BME280;3343;42.896;23.912;2022-09-09T03:06:55;96554.56;;;25.56;57.23
6615;BME280;3343;42.896;23.912;2022-09-09T03:09:22;96542.06;;;25.36;58.13
6615;BME280;3343;42.896;23.912;2022-09-09T03:11:49;96544.84;;;25.60;57.54
6615;BME280;3343;42.896;23.912;2022-09-09T03:14:16;96536.09;;;25.45;57.66
6615;BME280;3343;42.896;23.912;2022-09-09T03:16:48;96537.28;;;25.62;58.03
6615;BME280;3343;42.896;23.912;2022-09-09T03:19:16;96539.66;;;25.69;57.84
6615;BME280;3343;42.896;23.912;2022-09-09T03:21:44;96527.63;;;25.22;58.72
6615;BME280;3343;42.896;23.912;2022-09-09T03:24:11;96537.38;;;25.52;58.09
6615;BME280;3343;42.896;23.912;2022-09-09T03:26:38;96537.50;;;25.71;57.29
6615;BME280;3343;42.896;23.912;2022-09-09T03:29:06;96542.81;;;25.03;60.61
6615;BME280;3343;42.896;23.912;2022-09-09T03:31:33;96535.06;;;25.35;58.43
6615;BME280;3343;42.896;23.912;2022-09-09T03:34:03;96536.13;;;24.41;63.30
6615;BME280;3343;42.896;23.912;2022-09-09T03:36:30;96541.81;;;24.19;64.38
6615;BME280;3343;42.896;23.912;2022-09-09T03:38:58;96536.56;;;25.13;60.45
6615;BME280;3343;42.896;23.912;2022-09-09T03:41:25;96540.13;;;25.42;58.89
6615;BME280;3343;42.896;23.912;2022-09-09T03:43:53;96546.69;;;25.65;58.17
6615;BME280;3343;42.896;23.912;2022-09-09T03:46:21;96547.41;;;25.42;58.91
6615;BME280;3343;42.896;23.912;2022-09-09T03:48:48;96548.28;;;25.71;57.15
6615;BME280;3343;42.896;23.912;2022-09-09T03:51:18;96544.47;;;24.99;60.28
6615;BME280;3343;42.896;23.912;2022-09-09T03:53:44;96547.41;;;25.42;58.55
6615;BME280;3343;42.896;23.912;2022-09-09T03:56:12;96546.34;;;25.77;56.82
6615;BME280;3343;42.896;23.912;2022-09-09T03:58:38;96548.66;;;25.54;57.45
6615;BME280;3343;42.896;23.912;2022-09-09T04:01:10;96545.31;;;24.14;63.83
6615;BME280;3343;42.896;23.912;2022-09-09T04:03:39;96550.59;;;24.55;62.61
6615;BME280;3343;42.896;23.912;2022-09-09T04:06:07;96554.34;;;25.14;60.18
6615;BME280;3343;42.896;23.912;2022-09-09T04:08:36;96556.28;;;25.03;60.19
6615;BME280;3343;42.896;23.912;2022-09-09T04:11:04;96559.81;;;24.93;60.74
6615;BME280;3343;42.896;23.912;2022-09-09T04:13:33;96563.94;;;25.64;57.95
6615;BME280;3343;42.896;23.912;2022-09-09T04:16:01;96561.97;;;25.40;57.71
6615;BME280;3343;42.896;23.912;2022-09-09T04:18:29;96564.34;;;25.47;57.79
6615;BME280;3343;42.896;23.912;2022-09-09T04:20:57;96562.50;;;25.43;58.26
6615;BME280;3343;42.896;23.912;2022-09-09T04:23:25;96568.19;;;24.87;60.25
6615;BME280;3343;42.896;23.912;2022-09-09T04:25:55;96571.38;;;24.39;62.82
6615;BME280;3343;42.896;23.912;2022-09-09T04:28:23;96570.50;;;24.59;62.83
6615;BME280;3343;42.896;23.912;2022-09-09T04:30:51;96585.31;;;25.11;60.32
6615;BME280;3343;42.896;23.912;2022-09-09T04:33:18;96580.44;;;25.57;58.63
6615;BME280;3343;42.896;23.912;2022-09-09T04:35:46;96566.56;;;25.74;57.39
6615;BME280;3343;42.896;23.912;2022-09-09T04:38:15;96592.03;;;25.92;56.39
6615;BME280;3343;42.896;23.912;2022-09-09T04:40:42;96587.28;;;25.79;57.51
6615;BME280;3343;42.896;23.912;2022-09-09T04:43:12;96591.50;;;25.90;57.56
6615;BME280;3343;42.896;23.912;2022-09-09T04:45:40;96592.53;;;25.94;57.15
6615;BME280;3343;42.896;23.912;2022-09-09T04:48:07;96593.47;;;26.42;55.81
6615;BME280;3343;42.896;23.912;2022-09-09T04:50:35;96584.47;;;26.23;55.48
6615;BME280;3343;42.896;23.912;2022-09-09T04:53:02;96587.38;;;25.29;59.71
6615;BME280;3343;42.896;23.912;2022-09-09T04:55:30;96586.94;;;25.17;61.35
6615;BME280;3343;42.896;23.912;2022-09-09T04:57:57;96584.94;;;24.78;63.02
6615;BME280;3343;42.896;23.912;2022-09-09T05:00:25;96582.13;;;25.48;61.22
6615;BME280;3343;42.896;23.912;2022-09-09T05:02:52;96575.44;;;26.09;57.43
6615;BME280;3343;42.896;23.912;2022-09-09T05:05:19;96558.66;;;26.83;55.27
6615;BME280;3343;42.896;23.912;2022-09-09T05:07:46;96543.00;;;27.42;54.31
6615;BME280;3343;42.896;23.912;2022-09-09T05:10:13;96543.84;;;26.81;55.21
6615;BME280;3343;42.896;23.912;2022-09-09T05:12:42;96520.84;;;27.07;53.65
6615;BME280;3343;42.896;23.912;2022-09-09T05:15:09;96539.59;;;27.69;52.23
6615;BME280;3343;42.896;23.912;2022-09-09T05:17:38;96540.34;;;28.34;51.76
6615;BME280;3343;42.896;23.912;2022-09-09T05:20:06;96537.63;;;28.62;50.79
6615;BME280;3343;42.896;23.912;2022-09-09T05:22:33;96537.16;;;29.68;47.39
6615;BME280;3343;42.896;23.912;2022-09-09T05:25:00;96531.91;;;30.33;45.80
6615;BME280;3343;42.896;23.912;2022-09-09T05:27:26;96536.16;;;30.57;44.51
6615;BME280;3343;42.896;23.912;2022-09-09T05:29:53;96537.53;;;30.85;44.38
6615;BME280;3343;42.896;23.912;2022-09-09T05:32:20;96540.00;;;31.39;44.23
6615;BME280;3343;42.896;23.912;2022-09-09T05:34:48;96538.00;;;31.91;42.93
6615;BME280;3343;42.896;23.912;2022-09-09T05:37:17;96535.75;;;32.02;42.82
6615;BME280;3343;42.896;23.912;2022-09-09T05:39:43;96541.53;;;32.47;41.79
6615;BME280;3343;42.896;23.912;2022-09-09T05:42:10;96539.19;;;32.66;41.50
6615;BME280;3343;42.896;23.912;2022-09-09T05:44:37;96537.66;;;32.86;40.42
6615;BME280;3343;42.896;23.912;2022-09-09T05:47:04;96529.47;;;33.36;39.20
6615;BME280;3343;42.896;23.912;2022-09-09T05:49:31;96535.38;;;33.71;37.45
6615;BME280;3343;42.896;23.912;2022-09-09T05:52:00;96536.69;;;34.31;36.49
6615;BME280;3343;42.896;23.912;2022-09-09T05:54:28;96532.38;;;34.42;35.04
6615;BME280;3343;42.896;23.912;2022-09-09T05:56:55;96532.56;;;34.13;32.40
6615;BME280;3343;42.896;23.912;2022-09-09T05:59:22;96545.63;;;33.74;32.71
6615;BME280;3343;42.896;23.912;2022-09-09T06:01:49;96541.72;;;33.84;31.85
6615;BME280;3343;42.896;23.912;2022-09-09T06:04:16;96536.91;;;34.14;32.74
6615;BME280;3343;42.896;23.912;2022-09-09T06:06:43;96541.66;;;34.05;32.72
6615;BME280;3343;42.896;23.912;2022-09-09T06:09:11;96549.56;;;34.67;33.65
6615;BME280;3343;42.896;23.912;2022-09-09T06:11:39;96547.44;;;34.97;32.36
6615;BME280;3343;42.896;23.912;2022-09-09T06:14:07;96557.66;;;35.65;32.89
6615;BME280;3343;42.896;23.912;2022-09-09T06:16:34;96560.38;;;35.93;30.04
6615;BME280;3343;42.896;23.912;2022-09-09T06:19:03;96565.44;;;36.22;31.38
6615;BME280;3343;42.896;23.912;2022-09-09T06:21:31;96561.97;;;36.53;29.79
6615;BME280;3343;42.896;23.912;2022-09-09T06:23:59;96564.16;;;36.63;31.79
6615;BME280;3343;42.896;23.912;2022-09-09T06:26:30;96557.78;;;36.91;31.18
6615;BME280;3343;42.896;23.912;2022-09-09T06:28:58;96570.81;;;37.13;30.43
6615;BME280;3343;42.896;23.912;2022-09-09T06:31:26;96572.28;;;37.42;28.98
6615;BME280;3343;42.896;23.912;2022-09-09T06:33:56;96576.53;;;37.40;28.14
6615;BME280;3343;42.896;23.912;2022-09-09T06:36:26;96560.34;;;37.19;27.31
6615;BME280;3343;42.896;23.912;2022-09-09T06:38:54;96562.38;;;36.87;27.13
6615;BME280;3343;42.896;23.912;2022-09-09T06:41:23;96571.03;;;37.05;27.21
6615;BME280;3343;42.896;23.912;2022-09-09T06:43:52;96570.53;;;37.34;27.50
6615;BME280;3343;42.896;23.912;2022-09-09T06:46:23;96576.84;;;37.73;28.05
6615;BME280;3343;42.896;23.912;2022-09-09T06:48:54;96566.03;;;38.03;27.51
6615;BME280;3343;42.896;23.912;2022-09-09T06:51:24;96572.50;;;37.72;26.75
6615;BME280;3343;42.896;23.912;2022-09-09T06:53:53;96565.66;;;38.05;26.04
6615;BME280;3343;42.896;23.912;2022-09-09T06:56:21;96571.22;;;38.08;25.92
6615;BME280;3343;42.896;23.912;2022-09-09T06:58:50;96579.53;;;38.12;25.85
6615;BME280;3343;42.896;23.912;2022-09-09T07:01:20;96571.09;;;38.66;26.94
6615;BME280;3343;42.896;23.912;2022-09-09T07:03:48;96578.50;;;36.88;30.05
6615;BME280;3343;42.896;23.912;2022-09-09T07:06:17;96575.63;;;37.00;28.66
6615;BME280;3343;42.896;23.912;2022-09-09T07:08:48;96574.09;;;36.52;28.29
6615;BME280;3343;42.896;23.912;2022-09-09T07:11:18;96581.06;;;35.90;29.67
6615;BME280;3343;42.896;23.912;2022-09-09T07:13:46;96589.41;;;35.41;30.16
6615;BME280;3343;42.896;23.912;2022-09-09T07:16:14;96591.09;;;35.58;29.96
6615;BME280;3343;42.896;23.912;2022-09-09T07:18:43;96584.69;;;35.94;28.68
6615;BME280;3343;42.896;23.912;2022-09-09T07:21:11;96586.53;;;36.34;28.43
6615;BME280;3343;42.896;23.912;2022-09-09T07:23:39;96582.19;;;36.33;27.67
6615;BME280;3343;42.896;23.912;2022-09-09T07:26:10;96585.91;;;36.72;27.08
6615;BME280;3343;42.896;23.912;2022-09-09T07:28:37;96587.00;;;37.34;27.32
6615;BME280;3343;42.896;23.912;2022-09-09T07:31:06;96592.38;;;37.66;26.14
6615;BME280;3343;42.896;23.912;2022-09-09T07:33:34;96590.28;;;37.24;27.56
6615;BME280;3343;42.896;23.912;2022-09-09T07:36:05;96586.03;;;36.60;27.91
6615;BME280;3343;42.896;23.912;2022-09-09T07:38:37;96585.38;;;35.91;28.45
6615;BME280;3343;42.896;23.912;2022-09-09T07:41:06;96583.94;;;35.41;29.80
6615;BME280;3343;42.896;23.912;2022-09-09T07:43:37;96571.09;;;36.14;30.42
6615;BME280;3343;42.896;23.912;2022-09-09T07:46:06;96577.69;;;36.72;27.87
6615;BME280;3343;42.896;23.912;2022-09-09T07:48:33;96573.34;;;36.40;28.20
6615;BME280;3343;42.896;23.912;2022-09-09T07:51:07;96573.81;;;36.42;27.79
6615;BME280;3343;42.896;23.912;2022-09-09T07:53:35;96575.97;;;36.20;28.29
6615;BME280;3343;42.896;23.912;2022-09-09T07:56:05;96561.91;;;36.22;27.86
6615;BME280;3343;42.896;23.912;2022-09-09T07:58:32;96562.81;;;36.26;27.82
6615;BME280;3343;42.896;23.912;2022-09-09T08:00:59;96555.50;;;36.61;29.32
6615;BME280;3343;42.896;23.912;2022-09-09T08:03:26;96556.75;;;36.80;28.32
6615;BME280;3343;42.896;23.912;2022-09-09T08:05:52;96555.47;;;36.14;28.46
6615;BME280;3343;42.896;23.912;2022-09-09T08:08:21;96556.69;;;36.17;29.04
6615;BME280;3343;42.896;23.912;2022-09-09T08:10:48;96559.78;;;36.43;28.39
6615;BME280;3343;42.896;23.912;2022-09-09T08:13:14;96562.94;;;36.77;28.25
6615;BME280;3343;42.896;23.912;2022-09-09T08:15:42;96553.09;;;36.91;27.93
6615;BME280;3343;42.896;23.912;2022-09-09T08:18:09;96560.03;;;37.05;27.71
6615;BME280;3343;42.896;23.912;2022-09-09T08:20:37;96556.31;;;37.13;27.92
6615;BME280;3343;42.896;23.912;2022-09-09T08:23:04;96560.72;;;37.52;27.92
6615;BME280;3343;42.896;23.912;2022-09-09T08:25:32;96565.56;;;37.59;27.44
6615;BME280;3343;42.896;23.912;2022-09-09T08:28:00;96563.75;;;37.67;28.73
6615;BME280;3343;42.896;23.912;2022-09-09T08:30:27;96562.69;;;38.33;27.50
6615;BME280;3343;42.896;23.912;2022-09-09T08:32:53;96564.00;;;38.65;27.20
6615;BME280;3343;42.896;23.912;2022-09-09T08:35:20;96566.88;;;38.72;27.41
6615;BME280;3343;42.896;23.912;2022-09-09T08:37:47;96570.50;;;39.29;27.29
6615;BME280;3343;42.896;23.912;2022-09-09T08:40:21;96573.28;;;39.93;27.10
6615;BME280;3343;42.896;23.912;2022-09-09T08:42:53;96578.19;;;40.10;26.60
6615;BME280;3343;42.896;23.912;2022-09-09T08:45:34;96575.00;;;40.04;26.11
6615;BME280;3343;42.896;23.912;2022-09-09T08:48:19;96563.84;;;40.34;26.53
6615;BME280;3343;42.896;23.912;2022-09-09T08:50:53;96567.00;;;39.62;27.51
6615;BME280;3343;42.896;23.912;2022-09-09T08:53:28;96565.38;;;39.91;28.25
6615;BME280;3343;42.896;23.912;2022-09-09T08:56:00;96571.88;;;39.76;27.71
6615;BME280;3343;42.896;23.912;2022-09-09T08:58:31;96568.28;;;39.72;26.97
6615;BME280;3343;42.896;23.912;2022-09-09T09:01:14;96576.47;;;39.95;25.86
6615;BME280;3343;42.896;23.912;2022-09-09T09:03:52;96559.66;;;40.07;25.16
6615;BME280;3343;42.896;23.912;2022-09-09T09:06:34;96564.50;;;39.87;25.95
6615;BME280;3343;42.896;23.912;2022-09-09T09:09:08;96550.59;;;39.43;26.05
6615;BME280;3343;42.896;23.912;2022-09-09T09:11:39;96553.94;;;39.89;25.62
6615;BME280;3343;42.896;23.912;2022-09-09T09:14:14;96543.94;;;40.55;26.52
6615;BME280;3343;42.896;23.912;2022-09-09T09:16:49;96547.41;;;40.93;25.34
6615;BME280;3343;42.896;23.912;2022-09-09T09:19:17;96538.53;;;40.22;26.06
6615;BME280;3343;42.896;23.912;2022-09-09T09:21:51;96540.97;;;40.30;25.59
6615;BME280;3343;42.896;23.912;2022-09-09T09:24:24;96541.03;;;40.82;26.71
6615;BME280;3343;42.896;23.912;2022-09-09T09:26:54;96538.66;;;40.80;23.80
6615;BME280;3343;42.896;23.912;2022-09-09T09:29:24;96536.47;;;41.11;24.11
6615;BME280;3343;42.896;23.912;2022-09-09T09:31:52;96538.03;;;40.53;23.47
6615;BME280;3343;42.896;23.912;2022-09-09T09:34:21;96534.44;;;39.71;25.51
6615;BME280;3343;42.896;23.912;2022-09-09T09:36:53;96532.38;;;39.95;25.03
6615;BME280;3343;42.896;23.912;2022-09-09T09:39:25;96531.63;;;39.98;25.87
6615;BME280;3343;42.896;23.912;2022-09-09T09:41:52;96527.81;;;40.13;26.10
6615;BME280;3343;42.896;23.912;2022-09-09T09:44:26;96538.25;;;40.78;25.70
6615;BME280;3343;42.896;23.912;2022-09-09T09:47:05;96537.34;;;41.22;24.95
6615;BME280;3343;42.896;23.912;2022-09-09T09:49:33;96540.19;;;41.36;24.61
6615;BME280;3343;42.896;23.912;2022-09-09T09:52:01;96529.16;;;41.47;23.40
6615;BME280;3343;42.896;23.912;2022-09-09T09:54:30;96535.44;;;41.33;23.72
6615;BME280;3343;42.896;23.912;2022-09-09T09:57:08;96533.66;;;41.73;24.43
6615;BME280;3343;42.896;23.912;2022-09-09T09:59:37;96524.25;;;41.08;22.96
6615;BME280;3343;42.896;23.912;2022-09-09T10:02:25;96513.81;;;39.58;25.44
6615;BME280;3343;42.896;23.912;2022-09-09T10:05:02;96505.78;;;40.17;25.37
6615;BME280;3343;42.896;23.912;2022-09-09T10:07:29;96502.25;;;39.79;26.70
6615;BME280;3343;42.896;23.912;2022-09-09T10:09:57;96509.97;;;40.00;25.91
6615;BME280;3343;42.896;23.912;2022-09-09T10:12:34;96513.66;;;40.62;24.41
6615;BME280;3343;42.896;23.912;2022-09-09T10:15:20;96507.69;;;40.53;24.55
6615;BME280;3343;42.896;23.912;2022-09-09T10:17:59;96516.16;;;41.54;24.76
6615;BME280;3343;42.896;23.912;2022-09-09T10:20:36;96514.91;;;40.24;24.50
6615;BME280;3343;42.896;23.912;2022-09-09T10:23:22;96512.03;;;41.13;24.79
6615;BME280;3343;42.896;23.912;2022-09-09T10:26:07;96514.50;;;41.28;23.99
6615;BME280;3343;42.896;23.912;2022-09-09T10:31:55;96510.06;;;40.10;25.46
6615;BME280;3343;42.896;23.912;2022-09-09T10:34:39;96503.13;;;40.27;26.81
6615;BME280;3343;42.896;23.912;2022-09-09T10:37:15;96509.53;;;40.38;26.25
6615;BME280;3343;42.896;23.912;2022-09-09T10:39:51;96516.50;;;39.51;27.14
6615;BME280;3343;42.896;23.912;2022-09-09T10:42:30;96513.63;;;39.44;27.24
6615;BME280;3343;42.896;23.912;2022-09-09T10:45:07;96522.06;;;39.55;27.06
6615;BME280;3343;42.896;23.912;2022-09-09T10:47:56;96524.81;;;39.55;27.92
6615;BME280;3343;42.896;23.912;2022-09-09T10:53:22;96533.34;;;39.16;27.39
6615;BME280;3343;42.896;23.912;2022-09-09T10:55:52;96530.59;;;38.63;28.18
6615;BME280;3343;42.896;23.912;2022-09-09T10:58:23;96537.53;;;38.57;29.12
6615;BME280;3343;42.896;23.912;2022-09-09T11:00:54;96522.34;;;38.63;28.80
6615;BME280;3343;42.896;23.912;2022-09-09T11:03:27;96522.63;;;38.12;29.82
6615;BME280;3343;42.896;23.912;2022-09-09T11:05:58;96531.81;;;37.39;29.74
6615;BME280;3343;42.896;23.912;2022-09-09T11:08:28;96536.00;;;36.98;30.89
6615;BME280;3343;42.896;23.912;2022-09-09T11:11:00;96538.34;;;36.80;30.82
6615;BME280;3343;42.896;23.912;2022-09-09T11:13:34;96535.38;;;35.94;30.65
6615;BME280;3343;42.896;23.912;2022-09-09T11:16:05;96538.59;;;36.28;31.17
6615;BME280;3343;42.896;23.912;2022-09-09T11:18:41;96539.13;;;36.81;31.73
6615;BME280;3343;42.896;23.912;2022-09-09T11:21:16;96543.38;;;36.78;31.16
6615;BME280;3343;42.896;23.912;2022-09-09T11:23:49;96553.16;;;36.95;30.11
6615;BME280;3343;42.896;23.912;2022-09-09T11:26:28;96547.16;;;36.74;30.55
6615;BME280;3343;42.896;23.912;2022-09-09T11:29:09;96540.69;;;36.19;30.57
6615;BME280;3343;42.896;23.912;2022-09-09T11:31:53;96545.41;;;36.65;31.42
6615;BME280;3343;42.896;23.912;2022-09-09T11:34:38;96550.03;;;37.47;31.36
6615;BME280;3343;42.896;23.912;2022-09-09T11:37:26;96550.44;;;36.95;31.31
6615;BME280;3343;42.896;23.912;2022-09-09T11:40:14;96548.56;;;36.99;31.77
6615;BME280;3343;42.896;23.912;2022-09-09T11:42:43;96534.88;;;36.83;31.38
6615;BME280;3343;42.896;23.912;2022-09-09T11:45:19;96537.25;;;37.20;31.57
6615;BME280;3343;42.896;23.912;2022-09-09T11:47:52;96539.13;;;37.32;31.10
6615;BME280;3343;42.896;23.912;2022-09-09T11:50:31;96531.22;;;37.69;31.77
6615;BME280;3343;42.896;23.912;2022-09-09T11:53:18;96533.66;;;37.93;31.06
6615;BME280;3343;42.896;23.912;2022-09-09T11:55:48;96522.19;;;37.68;31.15
6615;BME280;3343;42.896;23.912;2022-09-09T11:58:26;96524.38;;;37.40;31.28
6615;BME280;3343;42.896;23.912;2022-09-09T12:00:58;96520.69;;;37.32;32.08
6615;BME280;3343;42.896;23.912;2022-09-09T12:03:39;96518.81;;;37.55;30.80
6615;BME280;3343;42.896;23.912;2022-09-09T12:06:46;96518.75;;;37.17;30.64
6615;BME280;3343;42.896;23.912;2022-09-09T12:09:23;96515.03;;;37.25;31.59
6615;BME280;3343;42.896;23.912;2022-09-09T12:11:52;96507.19;;;37.08;32.46
6615;BME280;3343;42.896;23.912;2022-09-09T12:14:36;96509.56;;;37.09;31.45
6615;BME280;3343;42.896;23.912;2022-09-09T12:17:19;96507.69;;;37.48;31.57
6615;BME280;3343;42.896;23.912;2022-09-09T12:19:46;96494.16;;;37.59;31.52
6615;BME280;3343;42.896;23.912;2022-09-09T12:22:26;96497.38;;;38.07;30.70
6615;BME280;3343;42.896;23.912;2022-09-09T12:25:12;96484.63;;;37.95;30.69
6615;BME280;3343;42.896;23.912;2022-09-09T12:27:52;96497.94;;;37.70;31.20
6615;BME280;3343;42.896;23.912;2022-09-09T12:30:29;96497.50;;;37.49;31.25
6615;BME280;3343;42.896;23.912;2022-09-09T12:33:11;96495.63;;;37.34;32.83
6615;BME280;3343;42.896;23.912;2022-09-09T12:35:43;96491.09;;;36.71;33.60
6615;BME280;3343;42.896;23.912;2022-09-09T12:38:20;96499.41;;;36.27;34.39
6615;BME280;3343;42.896;23.912;2022-09-09T12:40:55;96490.81;;;35.26;36.53
6615;BME280;3343;42.896;23.912;2022-09-09T12:43:24;96482.78;;;35.45;36.57
6615;BME280;3343;42.896;23.912;2022-09-09T12:46:00;96491.84;;;35.33;36.91
6615;BME280;3343;42.896;23.912;2022-09-09T12:48:39;96487.22;;;36.41;35.33
6615;BME280;3343;42.896;23.912;2022-09-09T12:51:18;96475.72;;;37.02;32.77
6615;BME280;3343;42.896;23.912;2022-09-09T12:53:51;96480.88;;;37.42;33.58
6615;BME280;3343;42.896;23.912;2022-09-09T12:56:20;96470.72;;;36.37;33.20
6615;BME280;3343;42.896;23.912;2022-09-09T12:58:53;96456.13;;;36.17;33.43
6615;BME280;3343;42.896;23.912;2022-09-09T13:01:23;96455.41;;;36.20;33.79
6615;BME280;3343;42.896;23.912;2022-09-09T13:03:52;96454.97;;;36.34;32.29
6615;BME280;3343;42.896;23.912;2022-09-09T13:06:21;96452.50;;;36.45;31.88
6615;BME280;3343;42.896;23.912;2022-09-09T13:08:53;96451.59;;;36.56;32.91
6615;BME280;3343;42.896;23.912;2022-09-09T13:11:25;96455.28;;;36.80;33.14
6615;BME280;3343;42.896;23.912;2022-09-09T13:13:56;96439.50;;;36.10;32.51
6615;BME280;3343;42.896;23.912;2022-09-09T13:16:26;96442.72;;;36.98;30.54
6615;BME280;3343;42.896;23.912;2022-09-09T13:18:58;96439.03;;;37.90;30.64
6615;BME280;3343;42.896;23.912;2022-09-09T13:21:34;96431.56;;;38.37;29.57
6615;BME280;3343;42.896;23.912;2022-09-09T13:24:24;96432.38;;;38.64;28.86
6615;BME280;3343;42.896;23.912;2022-09-09T13:26:55;96422.09;;;38.34;27.54
6615;BME280;3343;42.896;23.912;2022-09-09T13:29:23;96424.28;;;37.56;30.84
6615;BME280;3343;42.896;23.912;2022-09-09T13:32:04;96424.34;;;37.60;30.05
6615;BME280;3343;42.896;23.912;2022-09-09T13:34:35;96430.06;;;37.51;30.00
6615;BME280;3343;42.896;23.912;2022-09-09T13:37:06;96434.69;;;37.89;29.33
6615;BME280;3343;42.896;23.912;2022-09-09T13:39:36;96432.22;;;37.61;29.37